Kairouan, Tunisia
Current Conditions -  °F | °C
As of 3:00 PM on Wednesday 26 Nov 2014 (Local Time) from DTTK Reporting Station
Few Clouds Few Clouds  
Wind Chill: 77°   Ceiling: Unl
Heat Index: 79°   Visibility: 6mi
Dew Point: 57°   Wind: 2mph
Humidity: 50%   Direction: NA
Pressure: 29.91"   Gusts: NA
Location:  35.68°N, 10.1°E
Report Text: DTTK 261400Z VRB02KT 9999 FEW023 25/14 Q1013
Loading
Personal Weather Stations






























Interactive Weather Map New forecast layout! Learn more

10-Day Weather Forecast

Advertisements
Track Severe Weather on mobile